Allenton, WI

5:00 AM CDT on September 20, 2014 (GMT -0500)
KWIWESTB19 | Change Station
CLOSE
Current Station
Personal Weather Station
Location: West Bend, WI
Elevation: 1017 ft
Nearby Weather Stations

Elev 1017 ft 43.44 °N, 88.22 °W | Updated 3 minutes ago

Overcast
Overcast
62.5 °F
Feels Like 62.5 °F
N
9.0
Wind Variable Wind from SW
Gusts 14.0 mph

Today
High -- | Low -- °F
--% Chance of Precip.
Yesterday
High -- | Low -- °F
Precip. -- in
6:38 AM 6:54 PM
Waning Crescent, 13% visible
Pressure 29.83 in
Visibility 10.0 miles
Clouds Scattered Clouds 6500 ft
Mostly Cloudy 7500 ft
Overcast 9000 ft
Dew Point 60 °F
Humidity 90%
Rainfall 0.05 in
Snow Depth Not available.
UV 0 out of 12
Pollen 4.40 out of 12
Air Quality Not available.
Flu Activity Not available.
METAR KETB 200935Z AUTO 24011G21KT 10SM -RA SCT065 BKN075 OVC090 17/13 A2983 RMK AO2

More Conditions Fewer Conditions

Pressure 29.83 in
Visibility 10.0 miles
Clouds Scattered Clouds 6500 ft
Mostly Cloudy 7500 ft
Overcast 9000 ft
Dew Point 60 °F
Humidity 90%
Rainfall 0.05 in
Snow Depth Not available.
UV 0 out of 12
Pollen 4.40 out of 12
Air Quality Not available.
Flu Activity Not available.
METAR KETB 200935Z AUTO 24011G21KT 10SM -RA SCT065 BKN075 OVC090 17/13 A2983 RMK AO2

More Conditions Fewer Conditions

10-Day Weather Forecast

Almanac

Astronomy

Sep. 20, 2014 Rise Set
Actual Time 6:38 AM CDT 6:54 PM CDT
Civil Twilight 6:09 AM CDT 7:22 PM CDT
Nautical Twilight 5:36 AM CDT 7:56 PM CDT
Astronomical Twilight 5:01 AM CDT 8:30 PM CDT
Moon 3:12 AM CDT 5:01 PM CDT
Length of Visible Light 13h 13m
Length of Day
12h 15m
Tomorrow will be 2m 57s shorter.
Waning Crescent, 13% of the Moon is Illuminated
Today
Waning Crescent
Sep 24
New
Oct 1
First Quarter
Oct 8
Full
Oct 15
Last Quarter

Today's Extremes

State Highs State Lows

Community

WunderPhotos

Upload Photos

1,754,794 photos uploaded!

WunderBlogs® & News

Nearby

Snow Depth

Station Depth Elevation
No new snow has been reported.

Earthquake Activity

City Distance Mag. Time & Date
No recent earthquake activity has been reported nearby.
Minimum magnitude displayed is 2.5.

Coastal Water Temperatures

Place Temperature
No Stations Reporting

Nearby Weather Stations